createdAt,value
2023-03-27T00:01:31.107Z,95483.06
2023-03-27T00:03:58.989Z,95487.03
2023-03-27T00:06:27.163Z,95481.81
2023-03-27T00:08:54.846Z,95482.16
2023-03-27T00:11:24.790Z,95488.34
2023-03-27T00:13:54.262Z,95485.13
2023-03-27T00:16:26.441Z,95487.53
2023-03-27T00:18:54.607Z,95487.16
2023-03-27T00:21:23.305Z,95491.78
2023-03-27T00:23:51.892Z,95483.00
2023-03-27T00:26:21.414Z,95486.59
2023-03-27T00:28:49.161Z,95483.75
2023-03-27T00:31:17.294Z,95490.53
2023-03-27T00:33:46.389Z,95495.25
2023-03-27T00:36:15.118Z,95491.41
2023-03-27T00:38:43.687Z,95497.19
2023-03-27T00:41:12.608Z,95494.59
2023-03-27T00:43:43.594Z,95501.56
2023-03-27T00:46:28.122Z,95504.16
2023-03-27T00:48:57.289Z,95499.56
2023-03-27T00:51:27.578Z,95507.50
2023-03-27T00:53:56.764Z,95508.31
2023-03-27T00:56:25.672Z,95512.31
2023-03-27T00:58:56.889Z,95495.94
2023-03-27T01:01:28.110Z,95503.13
2023-03-27T01:04:01.623Z,95498.72
2023-03-27T01:06:30.898Z,95499.34
2023-03-27T01:08:58.534Z,95497.56
2023-03-27T01:11:39.332Z,95500.97
2023-03-27T01:14:16.658Z,95498.19
2023-03-27T01:16:53.230Z,95501.13
2023-03-27T01:19:55.084Z,95503.75
2023-03-27T01:22:46.337Z,95508.31
2023-03-27T01:25:34.829Z,95510.28
2023-03-27T01:28:30.654Z,95511.09
2023-03-27T01:31:03.232Z,95502.72
2023-03-27T01:33:58.921Z,95511.66
2023-03-27T01:37:03.148Z,95519.81
2023-03-27T01:39:40.363Z,95524.16
2023-03-27T01:42:18.406Z,95529.28
2023-03-27T01:44:51.936Z,95536.63
2023-03-27T01:47:38.045Z,95546.31
2023-03-27T01:50:11.486Z,95552.44
2023-03-27T01:52:43.051Z,95559.72
2023-03-27T01:55:19.087Z,95561.25
2023-03-27T01:57:51.442Z,95574.13
2023-03-27T02:00:23.180Z,95587.03
2023-03-27T02:02:54.873Z,95590.16
2023-03-27T02:05:27.457Z,95590.53
2023-03-27T02:08:00.999Z,95602.03
2023-03-27T02:10:34.965Z,95599.44
2023-03-27T02:13:08.292Z,95607.44
2023-03-27T02:15:40.822Z,95612.16
2023-03-27T02:18:13.228Z,95609.41
2023-03-27T02:20:42.571Z,95624.94
2023-03-27T02:23:10.124Z,95626.28
2023-03-27T02:25:41.124Z,95626.66
2023-03-27T02:28:22.766Z,95640.56
2023-03-27T02:31:05.356Z,95644.88
2023-03-27T02:33:42.353Z,95652.34
2023-03-27T02:36:23.326Z,95664.69
2023-03-27T02:38:58.684Z,95670.38
2023-03-27T02:41:35.691Z,95676.47
2023-03-27T02:44:12.033Z,95687.06
2023-03-27T02:46:45.387Z,95692.88
2023-03-27T02:49:19.347Z,95702.88
2023-03-27T02:51:52.049Z,95705.03
2023-03-27T02:54:23.384Z,95722.97
2023-03-27T02:56:55.833Z,95721.00
2023-03-27T02:59:28.073Z,95730.41
2023-03-27T03:01:56.274Z,95738.47
2023-03-27T03:04:28.385Z,95740.69
2023-03-27T03:06:56.875Z,95752.03
2023-03-27T03:09:25.929Z,95764.22
2023-03-27T03:11:55.213Z,95777.84
2023-03-27T03:14:27.208Z,95779.34
2023-03-27T03:16:54.805Z,95792.97
2023-03-27T03:19:23.885Z,95793.16
2023-03-27T03:21:51.583Z,95803.22
2023-03-27T03:24:19.317Z,95814.22
2023-03-27T03:26:49.944Z,95820.53
2023-03-27T03:29:19.907Z,95828.50
2023-03-27T03:31:48.584Z,95837.13
2023-03-27T03:34:18.373Z,95845.25
2023-03-27T03:36:49.213Z,95849.00
2023-03-27T03:39:18.259Z,95853.69
2023-03-27T03:41:45.794Z,95859.19
2023-03-27T03:44:13.578Z,95874.22
2023-03-27T03:46:42.403Z,95883.75
2023-03-27T03:49:10.379Z,95888.94
2023-03-27T03:51:38.646Z,95902.31
2023-03-27T03:54:07.027Z,95907.03
2023-03-27T03:56:34.785Z,95913.50
2023-03-27T03:59:03.007Z,95929.16
2023-03-27T04:01:30.541Z,95934.81
2023-03-27T04:03:59.422Z,95936.44
2023-03-27T04:06:27.132Z,95943.22
2023-03-27T04:08:54.708Z,95954.34
2023-03-27T04:11:22.249Z,95960.66
2023-03-27T04:13:50.206Z,95963.41
2023-03-27T04:16:17.807Z,95975.84
2023-03-27T04:18:45.541Z,95982.00
2023-03-27T04:21:15.262Z,95994.09
2023-03-27T04:23:42.924Z,95998.13
2023-03-27T04:26:12.281Z,96005.53
2023-03-27T04:28:41.015Z,96016.53
2023-03-27T04:31:10.757Z,96021.41
2023-03-27T04:33:46.525Z,96024.13
2023-03-27T04:36:15.722Z,96038.31
2023-03-27T04:38:43.397Z,96049.47
2023-03-27T04:41:11.006Z,96050.72
2023-03-27T04:43:40.248Z,96054.53
2023-03-27T04:46:08.300Z,96056.47
2023-03-27T04:48:39.114Z,96064.97
2023-03-27T04:51:09.215Z,96070.59
2023-03-27T04:53:38.795Z,96080.59
2023-03-27T04:56:08.256Z,96091.53
2023-03-27T04:58:37.530Z,96101.78
2023-03-27T05:01:06.033Z,96119.44
2023-03-27T05:03:34.679Z,96121.31
2023-03-27T05:06:04.042Z,96128.38
2023-03-27T05:08:31.649Z,96139.91
2023-03-27T05:11:00.617Z,96130.19
2023-03-27T05:13:28.695Z,96142.13
2023-03-27T05:15:59.022Z,96142.94
2023-03-27T05:18:27.695Z,96154.72
2023-03-27T05:20:57.158Z,96153.72
2023-03-27T05:23:24.846Z,96165.41
2023-03-27T05:25:59.905Z,96167.03
2023-03-27T05:28:30.201Z,96177.50
2023-03-27T05:30:58.181Z,96175.81
2023-03-27T05:33:26.684Z,96187.00
2023-03-27T05:35:54.279Z,96187.59
2023-03-27T05:38:22.682Z,96195.91
2023-03-27T05:40:52.138Z,96194.56
2023-03-27T05:43:19.742Z,96201.91
2023-03-27T05:45:49.170Z,96215.38
2023-03-27T05:48:17.343Z,96213.25
2023-03-27T05:50:44.900Z,96228.59
2023-03-27T05:53:12.454Z,96227.78
2023-03-27T05:55:40.395Z,96241.75
2023-03-27T05:58:10.014Z,96239.47
2023-03-27T06:00:38.705Z,96241.91
2023-03-27T06:03:07.817Z,96255.59
2023-03-27T06:05:35.715Z,96269.84
2023-03-27T06:08:03.298Z,96270.41
2023-03-27T06:10:33.601Z,96280.56
2023-03-27T06:13:02.838Z,96287.34
2023-03-27T06:15:30.887Z,96282.94
2023-03-27T06:17:58.692Z,96288.75
2023-03-27T06:20:28.051Z,96299.06
2023-03-27T06:22:59.433Z,96313.56
2023-03-27T06:25:28.411Z,96312.84
2023-03-27T06:27:56.002Z,96320.16
2023-03-27T06:30:25.736Z,96330.34
2023-03-27T06:32:57.638Z,96331.69
2023-03-27T06:35:28.035Z,96339.28
2023-03-27T06:37:58.970Z,96342.13
2023-03-27T06:40:28.875Z,96353.38
2023-03-27T06:42:58.169Z,96355.97
2023-03-27T06:45:27.638Z,96370.59
2023-03-27T06:48:16.032Z,96369.38
2023-03-27T06:50:49.357Z,96385.13
2023-03-27T06:55:48.965Z,96391.31
2023-03-27T06:58:18.556Z,96394.03
2023-03-27T07:00:46.647Z,96403.91
2023-03-27T07:03:15.109Z,96406.66
2023-03-27T07:05:43.311Z,96408.69
2023-03-27T07:08:23.667Z,96416.53
2023-03-27T07:11:07.509Z,96424.81
2023-03-27T07:13:38.077Z,96425.50
2023-03-27T07:16:06.822Z,96432.41
2023-03-27T07:18:34.454Z,96441.06
2023-03-27T07:21:01.974Z,96451.75
2023-03-27T07:23:30.862Z,96449.06
2023-03-27T07:25:59.206Z,96459.50
2023-03-27T07:28:27.016Z,96464.78
2023-03-27T07:30:54.846Z,96467.63
2023-03-27T07:33:22.809Z,96473.44
2023-03-27T07:35:50.679Z,96477.00
2023-03-27T07:38:18.422Z,96492.44
2023-03-27T07:40:47.392Z,96495.28
2023-03-27T07:43:15.362Z,96497.56
2023-03-27T07:45:43.173Z,96513.03
2023-03-27T07:48:14.797Z,96515.59
2023-03-27T07:50:43.017Z,96524.28
2023-03-27T07:53:32.670Z,96522.81
2023-03-27T07:55:59.659Z,96531.50
2023-03-27T07:58:27.350Z,96541.00
2023-03-27T08:00:55.679Z,96552.50
2023-03-27T08:03:25.987Z,96547.22
2023-03-27T08:05:55.064Z,96563.47
2023-03-27T08:08:23.195Z,96567.44
2023-03-27T08:10:52.037Z,96573.25
2023-03-27T08:13:20.924Z,96576.53
2023-03-27T08:15:48.445Z,96574.63
2023-03-27T08:18:15.991Z,96581.13
2023-03-27T08:20:43.630Z,96579.50
2023-03-27T08:23:11.421Z,96586.53
2023-03-27T08:25:38.924Z,96598.50
2023-03-27T08:28:07.152Z,96596.59
2023-03-27T08:30:36.569Z,96600.53
2023-03-27T08:33:04.210Z,96601.63
2023-03-27T08:35:32.380Z,96612.06
2023-03-27T08:38:00.029Z,96610.84
2023-03-27T08:40:30.803Z,96613.81
2023-03-27T08:43:07.514Z,96626.31
2023-03-27T08:45:43.831Z,96618.31
2023-03-27T08:48:17.923Z,96627.63
2023-03-27T08:50:50.577Z,96628.31
2023-03-27T08:53:24.463Z,96642.69
2023-03-27T08:55:52.533Z,96647.56
2023-03-27T08:58:22.545Z,96642.53
2023-03-27T09:00:59.599Z,96641.84
2023-03-27T09:03:32.420Z,96658.66
2023-03-27T09:06:03.632Z,96660.16
2023-03-27T09:08:43.637Z,96663.00
2023-03-27T09:11:23.884Z,96666.94
2023-03-27T09:13:53.043Z,96662.16
2023-03-27T09:16:27.351Z,96666.22
2023-03-27T09:19:00.872Z,96675.38
2023-03-27T09:21:36.057Z,96670.94
2023-03-27T09:24:10.151Z,96674.44
2023-03-27T09:26:38.237Z,96674.84
2023-03-27T09:29:19.892Z,96684.06
2023-03-27T09:31:51.139Z,96683.63
2023-03-27T09:34:23.593Z,96690.06
2023-03-27T09:36:51.624Z,96693.88
2023-03-27T09:39:22.778Z,96693.81
2023-03-27T09:41:54.351Z,96701.19
2023-03-27T09:44:26.139Z,96694.75
2023-03-27T09:47:00.092Z,96695.81
2023-03-27T09:49:28.226Z,96697.63
2023-03-27T09:51:58.216Z,96706.38
2023-03-27T09:54:28.915Z,96713.44
2023-03-27T09:57:02.311Z,96715.66
2023-03-27T09:59:33.603Z,96718.28
2023-03-27T10:02:16.721Z,96717.66
2023-03-27T10:04:59.235Z,96726.41
2023-03-27T10:07:27.255Z,96725.44
2023-03-27T10:10:08.965Z,96723.28
2023-03-27T10:12:37.527Z,96729.06
2023-03-27T10:15:07.716Z,96727.59
2023-03-27T10:17:39.522Z,96724.69
2023-03-27T10:20:13.825Z,96732.63
2023-03-27T10:22:43.276Z,96740.38
2023-03-27T10:25:18.560Z,96737.59
2023-03-27T10:27:46.622Z,96737.22
2023-03-27T10:30:33.421Z,96746.59
2023-03-27T10:33:02.612Z,96753.44
2023-03-27T10:35:36.497Z,96746.50
2023-03-27T10:38:07.368Z,96740.03
2023-03-27T10:40:37.715Z,96748.81
2023-03-27T10:43:12.601Z,96745.06
2023-03-27T10:45:47.702Z,96742.91
2023-03-27T10:48:37.243Z,96746.09
2023-03-27T10:51:09.153Z,96742.66
2023-03-27T10:53:42.418Z,96746.38
2023-03-27T10:56:16.343Z,96751.72
2023-03-27T10:58:48.827Z,96748.47
2023-03-27T11:01:24.867Z,96759.25
2023-03-27T11:04:00.578Z,96770.69
2023-03-27T11:06:34.385Z,96767.66
2023-03-27T11:09:05.926Z,96769.81
2023-03-27T11:11:37.484Z,96771.78
2023-03-27T11:14:11.118Z,96779.44
2023-03-27T11:16:42.207Z,96784.78
2023-03-27T11:19:37.473Z,96780.16
2023-03-27T11:22:08.597Z,96780.31
2023-03-27T11:24:42.891Z,96779.84
2023-03-27T11:27:15.046Z,96782.78
2023-03-27T11:29:49.760Z,96782.84
2023-03-27T11:32:25.348Z,96782.84
2023-03-27T11:34:58.488Z,96789.00
2023-03-27T11:37:35.680Z,96804.28
2023-03-27T11:40:10.241Z,96797.75
2023-03-27T11:42:43.136Z,96802.09
2023-03-27T11:45:13.488Z,96801.41
2023-03-27T11:47:53.155Z,96802.47
2023-03-27T11:50:33.357Z,96804.84
2023-03-27T11:53:16.314Z,96814.00
2023-03-27T11:55:52.233Z,96808.94
2023-03-27T11:58:32.197Z,96810.06
2023-03-27T12:01:07.985Z,96810.53
2023-03-27T12:04:09.117Z,96826.88
2023-03-27T12:06:47.142Z,96830.34
2023-03-27T12:09:27.100Z,96840.56
2023-03-27T12:12:01.046Z,96840.81
2023-03-27T12:14:41.124Z,96844.59
2023-03-27T12:17:21.740Z,96845.19
2023-03-27T12:20:11.955Z,96852.88
2023-03-27T12:22:48.649Z,96854.44
2023-03-27T12:25:36.308Z,96853.84
2023-03-27T12:28:22.733Z,96865.84
2023-03-27T12:30:58.910Z,96861.91
2023-03-27T12:33:49.903Z,96863.81
2023-03-27T12:36:22.206Z,96869.44
2023-03-27T12:38:52.861Z,96871.19
2023-03-27T12:41:23.880Z,96868.63
2023-03-27T12:43:57.118Z,96864.94
2023-03-27T12:46:38.480Z,96863.63
2023-03-27T12:49:48.061Z,96857.03
2023-03-27T12:52:18.655Z,96846.53
2023-03-27T12:55:09.230Z,96844.66
2023-03-27T12:57:44.264Z,96841.72
2023-03-27T13:00:21.717Z,96841.97
2023-03-27T13:03:26.032Z,96845.78
2023-03-27T13:06:20.470Z,96833.06
2023-03-27T13:09:00.809Z,96832.31
2023-03-27T13:11:50.398Z,96833.22
2023-03-27T13:14:50.177Z,96832.06
2023-03-27T13:17:37.551Z,96832.25
2023-03-27T13:20:16.639Z,96836.66
2023-03-27T13:22:56.826Z,96839.28
2023-03-27T13:25:50.587Z,96840.41
2023-03-27T13:28:34.455Z,96841.50
2023-03-27T13:31:04.401Z,96846.81
2023-03-27T13:33:43.610Z,96856.34
2023-03-27T13:36:15.009Z,96851.75
2023-03-27T13:39:13.233Z,96850.47
2023-03-27T13:41:57.132Z,96853.00
2023-03-27T13:44:40.599Z,96842.59
2023-03-27T13:47:28.246Z,96846.66
2023-03-27T13:50:14.236Z,96848.75
2023-03-27T13:53:12.655Z,96852.91
2023-03-27T13:56:12.938Z,96863.72
2023-03-27T13:59:15.256Z,96878.63
2023-03-27T14:01:57.594Z,96880.94
2023-03-27T14:04:52.659Z,96895.00
2023-03-27T14:07:46.581Z,96890.72
2023-03-27T14:10:37.188Z,96886.72
2023-03-27T14:13:21.553Z,96895.09
2023-03-27T14:16:16.221Z,96904.09
2023-03-27T14:18:57.370Z,96899.47
2023-03-27T14:21:37.910Z,96899.16
2023-03-27T14:24:18.097Z,96895.88
2023-03-27T14:26:46.347Z,96897.59
2023-03-27T14:29:15.454Z,96905.03
2023-03-27T14:31:44.382Z,96904.53
2023-03-27T14:34:24.596Z,96901.50
2023-03-27T14:36:52.865Z,96906.91
2023-03-27T14:39:23.631Z,96896.53
2023-03-27T14:41:54.342Z,96919.19
2023-03-27T14:44:23.932Z,96916.44
2023-03-27T14:46:53.206Z,96904.69
2023-03-27T14:49:25.723Z,96905.72
2023-03-27T14:52:00.150Z,96912.25
2023-03-27T14:54:29.486Z,96903.22
2023-03-27T14:57:00.237Z,96901.81
2023-03-27T14:59:31.540Z,96898.47
2023-03-27T15:02:02.049Z,96906.78
2023-03-27T15:04:33.753Z,96907.72
2023-03-27T15:07:14.290Z,96911.00
2023-03-27T15:09:41.880Z,96919.97
2023-03-27T15:12:11.201Z,96916.69
2023-03-27T15:14:40.385Z,96917.97
2023-03-27T15:17:12.211Z,96913.09
2023-03-27T15:19:45.691Z,96918.25
2023-03-27T15:22:18.103Z,96917.28
2023-03-27T15:24:50.897Z,96917.97
2023-03-27T15:27:20.967Z,96913.00
2023-03-27T15:29:53.346Z,96920.53
2023-03-27T15:32:21.958Z,96912.25
2023-03-27T15:34:56.811Z,96907.81
2023-03-27T15:37:28.542Z,96917.72
2023-03-27T15:40:02.076Z,96922.50
2023-03-27T15:42:45.743Z,96929.34
2023-03-27T15:45:16.896Z,96933.28
2023-03-27T15:47:45.564Z,96941.84
2023-03-27T15:50:20.885Z,96957.53
2023-03-27T15:52:49.416Z,96957.81
2023-03-27T15:55:33.996Z,96975.84
2023-03-27T15:58:14.811Z,96983.97
2023-03-27T16:00:47.434Z,96981.97
2023-03-27T16:03:19.523Z,96992.50
2023-03-27T16:05:48.938Z,96999.25
2023-03-27T16:08:28.304Z,97003.09
2023-03-27T16:10:56.922Z,97029.25
2023-03-27T16:13:33.222Z,97042.53
2023-03-27T16:16:02.823Z,97042.88
2023-03-27T16:18:33.951Z,97044.84
2023-03-27T16:21:11.069Z,97043.81
2023-03-27T16:23:38.641Z,97032.09
2023-03-27T16:26:07.930Z,97029.31
2023-03-27T16:28:36.501Z,97017.81
2023-03-27T16:31:12.269Z,96991.88
2023-03-27T16:33:42.782Z,96977.31
2023-03-27T16:36:13.215Z,96983.28
2023-03-27T16:38:42.404Z,96987.13
2023-03-27T16:41:13.790Z,96991.22
2023-03-27T16:43:41.527Z,96998.84
2023-03-27T16:46:18.221Z,96995.06
2023-03-27T16:48:45.860Z,96999.53
2023-03-27T16:51:14.996Z,97001.91
2023-03-27T16:53:43.991Z,97004.66
2023-03-27T16:56:12.297Z,97009.28
2023-03-27T16:58:40.229Z,97009.41
2023-03-27T17:01:08.697Z,97013.38
2023-03-27T17:03:37.157Z,97013.66
2023-03-27T17:06:07.076Z,97008.78
2023-03-27T17:08:36.603Z,97014.91
2023-03-27T17:11:05.499Z,97014.50
2023-03-27T17:13:33.236Z,97026.22
2023-03-27T17:16:00.863Z,97025.13
2023-03-27T17:18:28.473Z,97016.16
2023-03-27T17:20:56.410Z,97023.78
2023-03-27T17:23:24.211Z,97025.16
2023-03-27T17:25:53.113Z,97041.88
2023-03-27T17:28:20.710Z,97044.19
2023-03-27T17:31:01.047Z,97038.75
2023-03-27T17:33:31.868Z,97044.72
2023-03-27T17:35:59.588Z,97049.38
2023-03-27T17:38:27.523Z,97057.25
2023-03-27T17:40:56.515Z,97053.28
2023-03-27T17:43:24.053Z,97063.63
2023-03-27T17:45:51.592Z,97066.63
2023-03-27T17:48:19.103Z,97058.03
2023-03-27T17:50:54.735Z,97068.06
2023-03-27T17:53:29.298Z,97072.44
2023-03-27T17:55:59.202Z,97074.06
2023-03-27T17:58:28.604Z,97073.66
2023-03-27T18:00:56.589Z,97080.00
2023-03-27T18:03:24.608Z,97081.63
2023-03-27T18:05:52.241Z,97088.81
2023-03-27T18:08:20.799Z,97092.34
2023-03-27T18:10:50.623Z,97099.53
2023-03-27T18:13:20.514Z,97104.69
2023-03-27T18:15:48.216Z,97099.81
2023-03-27T18:18:15.885Z,97100.88
2023-03-27T18:20:43.426Z,97101.56
2023-03-27T18:23:10.966Z,97108.50
2023-03-27T18:25:41.867Z,97114.19
2023-03-27T18:28:10.420Z,97118.50
2023-03-27T18:30:39.760Z,97120.97
2023-03-27T18:33:07.328Z,97119.19
2023-03-27T18:35:36.785Z,97126.66
2023-03-27T18:38:04.637Z,97129.63
2023-03-27T18:40:33.247Z,97136.94
2023-03-27T18:43:00.899Z,97136.94
2023-03-27T18:45:28.576Z,97141.03
2023-03-27T18:47:57.534Z,97142.41
2023-03-27T18:50:25.221Z,97139.69
2023-03-27T18:52:53.403Z,97140.91
2023-03-27T18:55:21.052Z,97147.75
2023-03-27T18:57:48.566Z,97161.88
2023-03-27T19:00:18.448Z,97157.78
2023-03-27T19:02:46.253Z,97157.78
2023-03-27T19:05:16.212Z,97156.69
2023-03-27T19:07:46.804Z,97158.09
2023-03-27T19:10:14.725Z,97159.59
2023-03-27T19:12:42.207Z,97161.94
2023-03-27T19:15:19.924Z,97162.97
2023-03-27T19:17:48.067Z,97163.13
2023-03-27T19:20:17.277Z,97162.31
2023-03-27T19:22:44.752Z,97162.66
2023-03-27T19:25:12.284Z,97159.53
2023-03-27T19:27:39.934Z,97166.72
2023-03-27T19:30:09.226Z,97168.38
2023-03-27T19:32:36.922Z,97166.59
2023-03-27T19:35:04.802Z,97166.59
2023-03-27T19:37:34.293Z,97168.38
2023-03-27T19:40:01.845Z,97172.94
2023-03-27T19:42:29.528Z,97176.34
2023-03-27T19:44:57.421Z,97166.16
2023-03-27T19:47:24.956Z,97171.56
2023-03-27T19:49:53.556Z,97174.03
2023-03-27T19:52:22.569Z,97172.94
2023-03-27T19:54:51.552Z,97177.31
2023-03-27T19:57:19.181Z,97162.88
2023-03-27T19:59:46.780Z,97157.47
2023-03-27T20:02:14.725Z,97168.09
2023-03-27T20:04:42.556Z,97168.41
2023-03-27T20:07:10.334Z,97174.38
2023-03-27T20:09:38.458Z,97175.47
2023-03-27T20:12:07.955Z,97182.81
2023-03-27T20:14:35.535Z,97180.13
2023-03-27T20:17:03.079Z,97195.63
2023-03-27T20:19:34.845Z,97201.03
2023-03-27T20:22:03.973Z,97200.59
2023-03-27T20:24:31.492Z,97200.16
2023-03-27T20:26:59.029Z,97194.28
2023-03-27T20:29:28.057Z,97196.56
2023-03-27T20:31:55.813Z,97201.59
2023-03-27T20:34:24.173Z,97198.75
2023-03-27T20:36:52.932Z,97203.66
2023-03-27T20:39:20.822Z,97212.63
2023-03-27T20:41:48.995Z,97208.75
2023-03-27T20:44:16.659Z,97211.22
2023-03-27T20:46:50.949Z,97212.16
2023-03-27T20:51:57.097Z,97209.03
2023-03-27T20:54:24.674Z,97208.19
2023-03-27T20:56:52.238Z,97213.09
2023-03-27T20:59:19.828Z,97214.84
2023-03-27T21:01:48.722Z,97222.59
2023-03-27T21:04:16.485Z,97218.50
2023-03-27T21:06:44.331Z,97222.03
2023-03-27T21:09:13.822Z,97227.44
2023-03-27T21:11:41.594Z,97229.31
2023-03-27T21:14:09.215Z,97223.47
2023-03-27T21:16:37.601Z,97229.56
2023-03-27T21:19:06.647Z,97232.25
2023-03-27T21:21:34.183Z,97227.94
2023-03-27T21:24:01.688Z,97231.44
2023-03-27T21:26:29.171Z,97235.78
2023-03-27T21:28:56.680Z,97232.41
2023-03-27T21:31:24.231Z,97239.88
2023-03-27T21:33:51.793Z,97235.69
2023-03-27T21:36:20.805Z,97246.13
2023-03-27T21:38:48.472Z,97234.50
2023-03-27T21:41:18.008Z,97242.88
2023-03-27T21:43:45.844Z,97247.22
2023-03-27T21:46:13.605Z,97240.28
2023-03-27T21:48:42.936Z,97249.09
2023-03-27T21:51:10.480Z,97246.75
2023-03-27T21:53:39.354Z,97245.50
2023-03-27T21:56:07.883Z,97248.88
2023-03-27T21:58:35.548Z,97251.09
2023-03-27T22:01:03.601Z,97247.06
2023-03-27T22:03:31.429Z,97252.13
2023-03-27T22:06:11.510Z,97256.09
2023-03-27T22:08:42.423Z,97256.91
2023-03-27T22:11:10.901Z,97259.59
2023-03-27T22:13:39.562Z,97261.25
2023-03-27T22:16:11.012Z,97267.59
2023-03-27T22:18:38.732Z,97270.66
2023-03-27T22:21:17.514Z,97274.19
2023-03-27T22:23:46.939Z,97278.41
2023-03-27T22:26:14.535Z,97271.84
2023-03-27T22:28:42.044Z,97271.97
2023-03-27T22:31:10.020Z,97276.28
2023-03-27T22:33:38.127Z,97281.81
2023-03-27T22:36:07.178Z,97280.78
2023-03-27T22:38:34.723Z,97287.81
2023-03-27T22:41:05.919Z,97283.59
2023-03-27T22:43:33.642Z,97291.00
2023-03-27T22:46:05.802Z,97294.03
2023-03-27T22:48:33.518Z,97298.38
2023-03-27T22:51:01.442Z,97297.44
2023-03-27T22:53:29.400Z,97300.81
2023-03-27T22:55:58.236Z,97308.91
2023-03-27T22:58:27.923Z,97300.72
2023-03-27T23:00:56.441Z,97319.56
2023-03-27T23:03:25.588Z,97316.19
2023-03-27T23:05:54.399Z,97317.69
2023-03-27T23:08:24.962Z,97331.03
2023-03-27T23:10:56.401Z,97318.75
2023-03-27T23:13:24.071Z,97326.75
2023-03-27T23:15:53.422Z,97320.75
2023-03-27T23:18:24.501Z,97319.81
2023-03-27T23:20:56.136Z,97321.78
2023-03-27T23:23:24.189Z,97324.03
2023-03-27T23:25:51.924Z,97326.50
2023-03-27T23:28:19.516Z,97328.00
2023-03-27T23:30:54.793Z,97327.66
2023-03-27T23:33:24.840Z,97328.22
2023-03-27T23:35:53.026Z,97332.19
2023-03-27T23:38:20.517Z,97335.03
2023-03-27T23:40:47.967Z,97330.13
2023-03-27T23:43:15.408Z,97335.59
2023-03-27T23:45:43.719Z,97345.06
2023-03-27T23:48:12.577Z,97343.56
2023-03-27T23:50:40.120Z,97345.31
2023-03-27T23:53:07.639Z,97353.41
2023-03-27T23:55:35.243Z,97355.41
2023-03-27T23:58:02.725Z,97354.59
